sensor_id;sensor_type;location;lat;lon;timestamp;temperature;humidity
37702;DHT22;23548;51.196;6.838;2023-03-19T00:01:58;11.60;99.90
37702;DHT22;23548;51.196;6.838;2023-03-19T00:04:24;11.60;99.90
37702;DHT22;23548;51.196;6.838;2023-03-19T00:06:51;11.70;99.90
37702;DHT22;23548;51.196;6.838;2023-03-19T00:09:17;11.70;99.90
37702;DHT22;23548;51.196;6.838;2023-03-19T00:11:43;11.70;99.90
37702;DHT22;23548;51.196;6.838;2023-03-19T00:14:09;11.60;99.90
37702;DHT22;23548;51.196;6.838;2023-03-19T00:16:35;11.40;99.90
37702;DHT22;23548;51.196;6.838;2023-03-19T00:19:01;11.40;99.90
37702;DHT22;23548;51.196;6.838;2023-03-19T00:21:28;11.40;99.90
37702;DHT22;23548;51.196;6.838;2023-03-19T00:23:55;11.20;99.90
37702;DHT22;23548;51.196;6.838;2023-03-19T00:26:31;11.10;99.90
37702;DHT22;23548;51.196;6.838;2023-03-19T00:28:58;11.10;99.90
37702;DHT22;23548;51.196;6.838;2023-03-19T00:31:25;11.00;99.90
37702;DHT22;23548;51.196;6.838;2023-03-19T00:33:51;11.00;99.90
37702;DHT22;23548;51.196;6.838;2023-03-19T00:36:18;10.90;99.90
37702;DHT22;23548;51.196;6.838;2023-03-19T00:38:45;10.90;99.90
37702;DHT22;23548;51.196;6.838;2023-03-19T00:41:11;10.90;99.90
37702;DHT22;23548;51.196;6.838;2023-03-19T00:43:37;10.80;99.90
37702;DHT22;23548;51.196;6.838;2023-03-19T00:46:04;10.70;99.90
37702;DHT22;23548;51.196;6.838;2023-03-19T00:48:30;10.60;99.90
37702;DHT22;23548;51.196;6.838;2023-03-19T00:51:05;10.50;99.90
37702;DHT22;23548;51.196;6.838;2023-03-19T00:53:31;10.30;99.90
37702;DHT22;23548;51.196;6.838;2023-03-19T00:55:57;10.20;99.90
37702;DHT22;23548;51.196;6.838;2023-03-19T00:58:23;10.20;99.90
37702;DHT22;23548;51.196;6.838;2023-03-19T01:00:52;10.00;99.90
37702;DHT22;23548;51.196;6.838;2023-03-19T01:03:18;9.90;99.90
37702;DHT22;23548;51.196;6.838;2023-03-19T01:05:49;9.90;99.90
37702;DHT22;23548;51.196;6.838;2023-03-19T01:08:16;9.90;99.90
37702;DHT22;23548;51.196;6.838;2023-03-19T01:10:42;9.90;99.90
37702;DHT22;23548;51.196;6.838;2023-03-19T01:13:08;9.90;99.90
37702;DHT22;23548;51.196;6.838;2023-03-19T01:15:37;9.90;99.90
37702;DHT22;23548;51.196;6.838;2023-03-19T01:18:03;9.90;99.90
37702;DHT22;23548;51.196;6.838;2023-03-19T01:20:29;9.90;99.90
37702;DHT22;23548;51.196;6.838;2023-03-19T01:22:56;9.80;99.90
37702;DHT22;23548;51.196;6.838;2023-03-19T01:25:22;9.70;99.90
37702;DHT22;23548;51.196;6.838;2023-03-19T01:27:47;9.60;99.90
37702;DHT22;23548;51.196;6.838;2023-03-19T01:30:13;9.60;99.90
37702;DHT22;23548;51.196;6.838;2023-03-19T01:32:39;9.50;99.90
37702;DHT22;23548;51.196;6.838;2023-03-19T01:35:06;9.30;99.90
37702;DHT22;23548;51.196;6.838;2023-03-19T01:37:32;9.30;99.90
37702;DHT22;23548;51.196;6.838;2023-03-19T01:39:58;9.40;99.90
37702;DHT22;23548;51.196;6.838;2023-03-19T01:42:24;9.40;99.90
37702;DHT22;23548;51.196;6.838;2023-03-19T01:44:50;9.40;99.90
37702;DHT22;23548;51.196;6.838;2023-03-19T01:49:55;9.30;99.90
37702;DHT22;23548;51.196;6.838;2023-03-19T01:52:23;9.20;99.90
37702;DHT22;23548;51.196;6.838;2023-03-19T01:54:50;9.20;99.90
37702;DHT22;23548;51.196;6.838;2023-03-19T01:57:18;9.20;99.90
37702;DHT22;23548;51.196;6.838;2023-03-19T01:59:47;9.10;99.90
37702;DHT22;23548;51.196;6.838;2023-03-19T02:02:33;9.10;99.90
37702;DHT22;23548;51.196;6.838;2023-03-19T02:05:09;9.00;99.90
37702;DHT22;23548;51.196;6.838;2023-03-19T02:07:37;9.00;99.90
37702;DHT22;23548;51.196;6.838;2023-03-19T02:10:10;9.00;99.90
37702;DHT22;23548;51.196;6.838;2023-03-19T02:12:37;8.90;99.90
37702;DHT22;23548;51.196;6.838;2023-03-19T02:15:03;9.00;99.90
37702;DHT22;23548;51.196;6.838;2023-03-19T02:17:29;9.00;99.90
37702;DHT22;23548;51.196;6.838;2023-03-19T02:22:28;9.20;99.90
37702;DHT22;23548;51.196;6.838;2023-03-19T02:25:02;9.40;99.90
37702;DHT22;23548;51.196;6.838;2023-03-19T02:27:29;9.60;99.90
37702;DHT22;23548;51.196;6.838;2023-03-19T02:29:55;9.60;99.90
37702;DHT22;23548;51.196;6.838;2023-03-19T02:32:20;9.70;99.90
37702;DHT22;23548;51.196;6.838;2023-03-19T02:34:46;9.70;99.90
37702;DHT22;23548;51.196;6.838;2023-03-19T02:37:21;9.70;99.90
37702;DHT22;23548;51.196;6.838;2023-03-19T02:40:02;9.70;99.90
37702;DHT22;23548;51.196;6.838;2023-03-19T02:42:29;9.60;99.90
37702;DHT22;23548;51.196;6.838;2023-03-19T02:44:56;9.70;99.90
37702;DHT22;23548;51.196;6.838;2023-03-19T02:47:23;9.70;99.90
37702;DHT22;23548;51.196;6.838;2023-03-19T02:49:49;9.70;99.90
37702;DHT22;23548;51.196;6.838;2023-03-19T02:52:16;9.70;99.90
37702;DHT22;23548;51.196;6.838;2023-03-19T02:54:42;9.70;99.90
37702;DHT22;23548;51.196;6.838;2023-03-19T03:00:20;9.80;99.90
37702;DHT22;23548;51.196;6.838;2023-03-19T03:02:46;9.90;99.90
37702;DHT22;23548;51.196;6.838;2023-03-19T03:05:12;10.00;99.90
37702;DHT22;23548;51.196;6.838;2023-03-19T03:07:39;10.00;99.90
37702;DHT22;23548;51.196;6.838;2023-03-19T03:10:06;10.00;99.90
37702;DHT22;23548;51.196;6.838;2023-03-19T03:12:32;10.00;99.90
37702;DHT22;23548;51.196;6.838;2023-03-19T03:14:58;10.10;99.90
37702;DHT22;23548;51.196;6.838;2023-03-19T03:17:24;10.10;99.90
37702;DHT22;23548;51.196;6.838;2023-03-19T03:19:50;10.20;99.90
37702;DHT22;23548;51.196;6.838;2023-03-19T03:22:16;10.10;99.90
37702;DHT22;23548;51.196;6.838;2023-03-19T03:24:42;10.10;99.90
37702;DHT22;23548;51.196;6.838;2023-03-19T03:27:08;10.10;99.90
37702;DHT22;23548;51.196;6.838;2023-03-19T03:29:34;10.20;99.90
37702;DHT22;23548;51.196;6.838;2023-03-19T03:32:01;10.20;99.90
37702;DHT22;23548;51.196;6.838;2023-03-19T03:34:27;10.20;99.90
37702;DHT22;23548;51.196;6.838;2023-03-19T03:36:52;10.30;99.90
37702;DHT22;23548;51.196;6.838;2023-03-19T03:39:18;10.30;99.90
37702;DHT22;23548;51.196;6.838;2023-03-19T03:41:44;10.30;99.90
37702;DHT22;23548;51.196;6.838;2023-03-19T03:44:10;10.30;99.90
37702;DHT22;23548;51.196;6.838;2023-03-19T03:46:36;10.20;99.90
37702;DHT22;23548;51.196;6.838;2023-03-19T03:49:02;10.20;99.90
37702;DHT22;23548;51.196;6.838;2023-03-19T03:51:27;10.20;99.90
37702;DHT22;23548;51.196;6.838;2023-03-19T03:53:53;10.30;99.90
37702;DHT22;23548;51.196;6.838;2023-03-19T03:56:19;10.30;99.90
37702;DHT22;23548;51.196;6.838;2023-03-19T03:58:44;10.40;99.90
37702;DHT22;23548;51.196;6.838;2023-03-19T04:01:14;10.40;99.90
37702;DHT22;23548;51.196;6.838;2023-03-19T04:03:40;10.50;99.90
37702;DHT22;23548;51.196;6.838;2023-03-19T04:06:06;10.50;99.90
37702;DHT22;23548;51.196;6.838;2023-03-19T04:08:32;10.50;99.90
37702;DHT22;23548;51.196;6.838;2023-03-19T04:10:58;10.70;99.90
37702;DHT22;23548;51.196;6.838;2023-03-19T04:13:24;10.70;99.90
37702;DHT22;23548;51.196;6.838;2023-03-19T04:15:49;10.70;99.90
37702;DHT22;23548;51.196;6.838;2023-03-19T04:18:15;10.70;99.90
37702;DHT22;23548;51.196;6.838;2023-03-19T04:20:41;10.60;99.90
37702;DHT22;23548;51.196;6.838;2023-03-19T04:23:07;10.70;99.90
37702;DHT22;23548;51.196;6.838;2023-03-19T04:25:34;10.70;99.90
37702;DHT22;23548;51.196;6.838;2023-03-19T04:28:00;10.70;99.90
37702;DHT22;23548;51.196;6.838;2023-03-19T04:30:25;10.80;99.90
37702;DHT22;23548;51.196;6.838;2023-03-19T04:32:52;10.80;99.90
37702;DHT22;23548;51.196;6.838;2023-03-19T04:35:17;10.80;99.90
37702;DHT22;23548;51.196;6.838;2023-03-19T04:37:43;10.80;99.90
37702;DHT22;23548;51.196;6.838;2023-03-19T04:40:13;10.80;99.90
37702;DHT22;23548;51.196;6.838;2023-03-19T04:42:39;10.80;99.90
37702;DHT22;23548;51.196;6.838;2023-03-19T04:45:06;10.80;99.90
37702;DHT22;23548;51.196;6.838;2023-03-19T04:47:32;10.80;99.90
37702;DHT22;23548;51.196;6.838;2023-03-19T04:49:57;10.90;99.90
37702;DHT22;23548;51.196;6.838;2023-03-19T04:52:23;11.10;99.90
37702;DHT22;23548;51.196;6.838;2023-03-19T04:54:49;11.10;99.90
37702;DHT22;23548;51.196;6.838;2023-03-19T04:57:15;11.00;99.90
37702;DHT22;23548;51.196;6.838;2023-03-19T04:59:41;11.00;99.90
37702;DHT22;23548;51.196;6.838;2023-03-19T05:02:07;11.00;99.90
37702;DHT22;23548;51.196;6.838;2023-03-19T05:04:33;11.10;99.90
37702;DHT22;23548;51.196;6.838;2023-03-19T05:06:58;11.20;99.90
37702;DHT22;23548;51.196;6.838;2023-03-19T05:09:24;11.20;99.90
37702;DHT22;23548;51.196;6.838;2023-03-19T05:11:50;11.30;99.90
37702;DHT22;23548;51.196;6.838;2023-03-19T05:14:16;11.30;99.90
37702;DHT22;23548;51.196;6.838;2023-03-19T05:16:42;11.30;99.90
37702;DHT22;23548;51.196;6.838;2023-03-19T05:19:07;11.30;99.90
37702;DHT22;23548;51.196;6.838;2023-03-19T05:21:33;11.30;99.90
37702;DHT22;23548;51.196;6.838;2023-03-19T05:23:59;11.30;99.90
37702;DHT22;23548;51.196;6.838;2023-03-19T05:26:25;11.30;99.90
37702;DHT22;23548;51.196;6.838;2023-03-19T05:28:50;11.40;99.90
37702;DHT22;23548;51.196;6.838;2023-03-19T05:31:16;11.40;99.90
37702;DHT22;23548;51.196;6.838;2023-03-19T05:33:42;11.40;99.90
37702;DHT22;23548;51.196;6.838;2023-03-19T05:36:07;11.40;99.90
37702;DHT22;23548;51.196;6.838;2023-03-19T05:38:33;11.40;99.90
37702;DHT22;23548;51.196;6.838;2023-03-19T05:41:04;11.40;99.90
37702;DHT22;23548;51.196;6.838;2023-03-19T05:43:29;11.40;99.90
37702;DHT22;23548;51.196;6.838;2023-03-19T05:45:55;11.40;99.90
37702;DHT22;23548;51.196;6.838;2023-03-19T05:48:21;11.40;99.90
37702;DHT22;23548;51.196;6.838;2023-03-19T05:50:47;11.40;99.90
37702;DHT22;23548;51.196;6.838;2023-03-19T05:53:13;11.40;99.90
37702;DHT22;23548;51.196;6.838;2023-03-19T05:55:39;11.40;99.90
37702;DHT22;23548;51.196;6.838;2023-03-19T05:58:05;11.30;99.90
37702;DHT22;23548;51.196;6.838;2023-03-19T06:00:32;11.40;99.90
37702;DHT22;23548;51.196;6.838;2023-03-19T06:02:58;11.40;99.90
37702;DHT22;23548;51.196;6.838;2023-03-19T06:05:24;11.40;99.90
37702;DHT22;23548;51.196;6.838;2023-03-19T06:07:50;11.50;99.90
37702;DHT22;23548;51.196;6.838;2023-03-19T06:10:16;11.50;99.90
37702;DHT22;23548;51.196;6.838;2023-03-19T06:12:42;11.60;99.90
37702;DHT22;23548;51.196;6.838;2023-03-19T06:15:08;11.50;99.90
37702;DHT22;23548;51.196;6.838;2023-03-19T06:17:35;11.60;99.90
37702;DHT22;23548;51.196;6.838;2023-03-19T06:20:01;11.70;99.90
37702;DHT22;23548;51.196;6.838;2023-03-19T06:22:27;11.70;99.90
37702;DHT22;23548;51.196;6.838;2023-03-19T06:24:53;11.70;99.90
37702;DHT22;23548;51.196;6.838;2023-03-19T06:27:19;11.70;99.90
37702;DHT22;23548;51.196;6.838;2023-03-19T06:29:45;11.70;99.90
37702;DHT22;23548;51.196;6.838;2023-03-19T06:32:11;11.70;99.90
37702;DHT22;23548;51.196;6.838;2023-03-19T06:34:37;11.60;99.90
37702;DHT22;23548;51.196;6.838;2023-03-19T06:37:02;11.60;99.90
37702;DHT22;23548;51.196;6.838;2023-03-19T06:39:28;11.60;99.90
37702;DHT22;23548;51.196;6.838;2023-03-19T06:41:54;11.50;99.90
37702;DHT22;23548;51.196;6.838;2023-03-19T06:44:20;11.60;99.90
37702;DHT22;23548;51.196;6.838;2023-03-19T06:46:46;11.60;99.90
37702;DHT22;23548;51.196;6.838;2023-03-19T06:49:12;11.60;99.90
37702;DHT22;23548;51.196;6.838;2023-03-19T06:51:38;11.60;99.90
37702;DHT22;23548;51.196;6.838;2023-03-19T06:54:03;11.60;99.90
37702;DHT22;23548;51.196;6.838;2023-03-19T06:56:29;11.60;99.90
37702;DHT22;23548;51.196;6.838;2023-03-19T06:58:55;11.60;99.90
37702;DHT22;23548;51.196;6.838;2023-03-19T07:01:20;11.70;99.90
37702;DHT22;23548;51.196;6.838;2023-03-19T07:03:47;11.70;99.90
37702;DHT22;23548;51.196;6.838;2023-03-19T07:06:13;11.80;99.90
37702;DHT22;23548;51.196;6.838;2023-03-19T07:08:39;11.80;99.90
37702;DHT22;23548;51.196;6.838;2023-03-19T07:11:10;11.90;99.90
37702;DHT22;23548;51.196;6.838;2023-03-19T07:13:36;12.10;99.90
37702;DHT22;23548;51.196;6.838;2023-03-19T07:16:02;12.20;99.90
37702;DHT22;23548;51.196;6.838;2023-03-19T07:18:29;12.50;99.90
37702;DHT22;23548;51.196;6.838;2023-03-19T07:20:55;12.70;99.90
37702;DHT22;23548;51.196;6.838;2023-03-19T07:23:21;12.80;99.90
37702;DHT22;23548;51.196;6.838;2023-03-19T07:25:47;13.20;99.90
37702;DHT22;23548;51.196;6.838;2023-03-19T07:28:13;13.20;99.90
37702;DHT22;23548;51.196;6.838;2023-03-19T07:30:38;13.20;99.90
37702;DHT22;23548;51.196;6.838;2023-03-19T07:33:06;13.30;99.90
37702;DHT22;23548;51.196;6.838;2023-03-19T07:35:32;13.00;99.90
37702;DHT22;23548;51.196;6.838;2023-03-19T07:37:59;12.80;99.90
37702;DHT22;23548;51.196;6.838;2023-03-19T07:40:25;12.60;99.90
37702;DHT22;23548;51.196;6.838;2023-03-19T07:42:51;12.60;99.90
37702;DHT22;23548;51.196;6.838;2023-03-19T07:45:18;12.70;99.90
37702;DHT22;23548;51.196;6.838;2023-03-19T07:47:44;12.80;99.90
37702;DHT22;23548;51.196;6.838;2023-03-19T07:50:10;12.80;99.90
37702;DHT22;23548;51.196;6.838;2023-03-19T07:52:36;12.80;99.90
37702;DHT22;23548;51.196;6.838;2023-03-19T07:55:02;12.90;99.90
37702;DHT22;23548;51.196;6.838;2023-03-19T07:57:28;12.90;99.90
37702;DHT22;23548;51.196;6.838;2023-03-19T07:59:54;12.90;99.90
37702;DHT22;23548;51.196;6.838;2023-03-19T08:02:19;12.80;99.90
37702;DHT22;23548;51.196;6.838;2023-03-19T08:04:45;12.60;99.90
37702;DHT22;23548;51.196;6.838;2023-03-19T08:07:11;12.60;99.90
37702;DHT22;23548;51.196;6.838;2023-03-19T08:09:39;12.60;99.90
37702;DHT22;23548;51.196;6.838;2023-03-19T08:12:06;12.60;99.90
37702;DHT22;23548;51.196;6.838;2023-03-19T08:14:32;12.50;99.90
37702;DHT22;23548;51.196;6.838;2023-03-19T08:16:59;12.40;99.90
37702;DHT22;23548;51.196;6.838;2023-03-19T08:19:25;12.40;99.90
37702;DHT22;23548;51.196;6.838;2023-03-19T08:21:51;12.60;99.90
37702;DHT22;23548;51.196;6.838;2023-03-19T08:24:17;12.90;99.90
37702;DHT22;23548;51.196;6.838;2023-03-19T08:26:44;13.10;99.90
37702;DHT22;23548;51.196;6.838;2023-03-19T08:29:11;13.40;99.90
37702;DHT22;23548;51.196;6.838;2023-03-19T08:31:37;13.30;99.90
37702;DHT22;23548;51.196;6.838;2023-03-19T08:34:03;13.50;99.90
37702;DHT22;23548;51.196;6.838;2023-03-19T08:36:30;13.50;99.90
37702;DHT22;23548;51.196;6.838;2023-03-19T08:38:56;13.70;99.90
37702;DHT22;23548;51.196;6.838;2023-03-19T08:41:24;14.10;99.90
37702;DHT22;23548;51.196;6.838;2023-03-19T08:43:50;14.40;99.90
37702;DHT22;23548;51.196;6.838;2023-03-19T08:46:16;14.50;99.90
37702;DHT22;23548;51.196;6.838;2023-03-19T08:48:42;14.90;99.90
37702;DHT22;23548;51.196;6.838;2023-03-19T08:51:08;15.30;99.90
37702;DHT22;23548;51.196;6.838;2023-03-19T08:53:35;15.40;99.90
37702;DHT22;23548;51.196;6.838;2023-03-19T08:56:04;15.30;99.90
37702;DHT22;23548;51.196;6.838;2023-03-19T08:58:31;14.80;99.90
37702;DHT22;23548;51.196;6.838;2023-03-19T09:01:02;14.60;99.90
37702;DHT22;23548;51.196;6.838;2023-03-19T09:03:28;14.70;99.90
37702;DHT22;23548;51.196;6.838;2023-03-19T09:05:58;14.50;99.90
37702;DHT22;23548;51.196;6.838;2023-03-19T09:08:24;14.40;99.90
37702;DHT22;23548;51.196;6.838;2023-03-19T09:10:50;14.50;99.90
37702;DHT22;23548;51.196;6.838;2023-03-19T09:13:16;14.90;99.90
37702;DHT22;23548;51.196;6.838;2023-03-19T09:15:42;15.30;99.90
37702;DHT22;23548;51.196;6.838;2023-03-19T09:18:08;15.60;99.90
37702;DHT22;23548;51.196;6.838;2023-03-19T09:20:35;14.90;99.90
37702;DHT22;23548;51.196;6.838;2023-03-19T09:23:01;14.50;99.90
37702;DHT22;23548;51.196;6.838;2023-03-19T09:25:27;14.90;99.90
37702;DHT22;23548;51.196;6.838;2023-03-19T09:27:53;15.30;99.90
37702;DHT22;23548;51.196;6.838;2023-03-19T09:30:19;15.40;99.90
37702;DHT22;23548;51.196;6.838;2023-03-19T09:32:46;15.40;99.90
37702;DHT22;23548;51.196;6.838;2023-03-19T09:35:12;15.60;99.90
37702;DHT22;23548;51.196;6.838;2023-03-19T09:37:38;15.70;99.90
37702;DHT22;23548;51.196;6.838;2023-03-19T09:40:06;15.80;99.90
37702;DHT22;23548;51.196;6.838;2023-03-19T09:45:13;15.50;99.90
37702;DHT22;23548;51.196;6.838;2023-03-19T09:47:41;15.10;99.90
37702;DHT22;23548;51.196;6.838;2023-03-19T09:50:20;15.00;99.90
37702;DHT22;23548;51.196;6.838;2023-03-19T09:53:45;14.90;99.90
37702;DHT22;23548;51.196;6.838;2023-03-19T09:55:57;14.90;99.90
37702;DHT22;23548;51.196;6.838;2023-03-19T09:58:31;14.90;99.90
37702;DHT22;23548;51.196;6.838;2023-03-19T10:00:57;15.00;99.90
37702;DHT22;23548;51.196;6.838;2023-03-19T10:06:29;14.80;99.90
37702;DHT22;23548;51.196;6.838;2023-03-19T10:12:03;15.10;99.90
37702;DHT22;23548;51.196;6.838;2023-03-19T10:17:26;15.30;99.90
37702;DHT22;23548;51.196;6.838;2023-03-19T10:20:04;15.90;99.90
37702;DHT22;23548;51.196;6.838;2023-03-19T10:22:59;16.50;99.90
37702;DHT22;23548;51.196;6.838;2023-03-19T10:25:28;15.90;99.90
37702;DHT22;23548;51.196;6.838;2023-03-19T10:28:14;15.60;99.90
37702;DHT22;23548;51.196;6.838;2023-03-19T10:30:41;15.70;99.90
37702;DHT22;23548;51.196;6.838;2023-03-19T10:33:24;15.90;99.90
37702;DHT22;23548;51.196;6.838;2023-03-19T10:36:04;16.00;99.90
37702;DHT22;23548;51.196;6.838;2023-03-19T10:38:39;16.30;99.90
37702;DHT22;23548;51.196;6.838;2023-03-19T10:44:02;16.10;99.90
37702;DHT22;23548;51.196;6.838;2023-03-19T10:46:40;15.70;99.90
37702;DHT22;23548;51.196;6.838;2023-03-19T10:49:13;16.20;99.90
37702;DHT22;23548;51.196;6.838;2023-03-19T10:51:45;16.40;99.90
37702;DHT22;23548;51.196;6.838;2023-03-19T10:54:22;16.10;99.90
37702;DHT22;23548;51.196;6.838;2023-03-19T10:56:50;15.70;99.90
37702;DHT22;23548;51.196;6.838;2023-03-19T11:02:00;15.60;99.90
37702;DHT22;23548;51.196;6.838;2023-03-19T11:04:26;15.20;99.90
37702;DHT22;23548;51.196;6.838;2023-03-19T11:07:12;15.30;99.90
37702;DHT22;23548;51.196;6.838;2023-03-19T11:09:49;15.00;99.90
37702;DHT22;23548;51.196;6.838;2023-03-19T11:12:29;15.10;99.90
37702;DHT22;23548;51.196;6.838;2023-03-19T11:14:59;15.00;99.90
37702;DHT22;23548;51.196;6.838;2023-03-19T11:17:39;15.10;99.90
37702;DHT22;23548;51.196;6.838;2023-03-19T11:20:23;15.30;99.90
37702;DHT22;23548;51.196;6.838;2023-03-19T11:22:52;15.20;99.90
37702;DHT22;23548;51.196;6.838;2023-03-19T11:25:51;14.80;99.90
37702;DHT22;23548;51.196;6.838;2023-03-19T11:28:19;14.50;99.90
37702;DHT22;23548;51.196;6.838;2023-03-19T11:39:08;13.90;99.90
37702;DHT22;23548;51.196;6.838;2023-03-19T11:48:04;13.80;99.90
37702;DHT22;23548;51.196;6.838;2023-03-19T11:50:19;13.80;99.90
37702;DHT22;23548;51.196;6.838;2023-03-19T11:53:02;13.80;99.90
37702;DHT22;23548;51.196;6.838;2023-03-19T11:55:55;13.80;99.90
37702;DHT22;23548;51.196;6.838;2023-03-19T12:00:55;13.60;99.90
37702;DHT22;23548;51.196;6.838;2023-03-19T12:06:40;13.40;99.90
37702;DHT22;23548;51.196;6.838;2023-03-19T12:14:59;13.40;99.90
37702;DHT22;23548;51.196;6.838;2023-03-19T12:20:23;13.50;99.90
37702;DHT22;23548;51.196;6.838;2023-03-19T12:25:43;13.70;99.90
37702;DHT22;23548;51.196;6.838;2023-03-19T12:28:23;13.80;99.90
37702;DHT22;23548;51.196;6.838;2023-03-19T12:40:21;14.40;99.90
37702;DHT22;23548;51.196;6.838;2023-03-19T12:42:50;14.40;99.90
37702;DHT22;23548;51.196;6.838;2023-03-19T12:50:55;14.50;99.90
37702;DHT22;23548;51.196;6.838;2023-03-19T12:53:49;14.50;99.90
37702;DHT22;23548;51.196;6.838;2023-03-19T13:01:55;14.30;99.90
37702;DHT22;23548;51.196;6.838;2023-03-19T13:04:34;13.90;99.90
37702;DHT22;23548;51.196;6.838;2023-03-19T13:07:30;13.70;99.90
37702;DHT22;23548;51.196;6.838;2023-03-19T13:10:02;14.00;99.90
37702;DHT22;23548;51.196;6.838;2023-03-19T13:12:31;14.50;99.90
37702;DHT22;23548;51.196;6.838;2023-03-19T13:15:11;14.60;99.90
37702;DHT22;23548;51.196;6.838;2023-03-19T13:17:58;14.70;99.90
37702;DHT22;23548;51.196;6.838;2023-03-19T13:23:35;14.60;99.90
37702;DHT22;23548;51.196;6.838;2023-03-19T13:26:05;14.50;99.90
37702;DHT22;23548;51.196;6.838;2023-03-19T13:28:34;14.30;99.90
37702;DHT22;23548;51.196;6.838;2023-03-19T13:31:18;13.90;99.90
37702;DHT22;23548;51.196;6.838;2023-03-19T13:39:32;14.40;99.90
37702;DHT22;23548;51.196;6.838;2023-03-19T13:44:32;14.70;99.90
37702;DHT22;23548;51.196;6.838;2023-03-19T13:58:11;15.00;99.90
37702;DHT22;23548;51.196;6.838;2023-03-19T14:01:07;14.90;99.90
37702;DHT22;23548;51.196;6.838;2023-03-19T14:06:41;15.00;99.90
37702;DHT22;23548;51.196;6.838;2023-03-19T14:15:13;14.50;99.90
37702;DHT22;23548;51.196;6.838;2023-03-19T14:17:38;14.40;99.90
37702;DHT22;23548;51.196;6.838;2023-03-19T14:20:25;14.60;99.90
37702;DHT22;23548;51.196;6.838;2023-03-19T14:23:18;14.60;99.90
37702;DHT22;23548;51.196;6.838;2023-03-19T14:28:37;14.70;99.90
37702;DHT22;23548;51.196;6.838;2023-03-19T14:31:04;14.90;99.90
37702;DHT22;23548;51.196;6.838;2023-03-19T14:33:42;15.20;99.90
37702;DHT22;23548;51.196;6.838;2023-03-19T14:36:13;15.10;99.90
37702;DHT22;23548;51.196;6.838;2023-03-19T14:38:54;15.20;99.90
37702;DHT22;23548;51.196;6.838;2023-03-19T14:41:24;15.50;99.90
37702;DHT22;23548;51.196;6.838;2023-03-19T14:47:03;15.30;99.90
37702;DHT22;23548;51.196;6.838;2023-03-19T14:49:49;15.50;99.90
37702;DHT22;23548;51.196;6.838;2023-03-19T14:52:48;15.50;99.90
37702;DHT22;23548;51.196;6.838;2023-03-19T14:55:16;15.60;99.90
37702;DHT22;23548;51.196;6.838;2023-03-19T14:57:42;16.00;99.90
37702;DHT22;23548;51.196;6.838;2023-03-19T15:00:16;16.30;99.90
37702;DHT22;23548;51.196;6.838;2023-03-19T15:02:49;16.40;99.90
37702;DHT22;23548;51.196;6.838;2023-03-19T15:05:26;16.50;99.90
37702;DHT22;23548;51.196;6.838;2023-03-19T15:08:03;16.30;99.90
37702;DHT22;23548;51.196;6.838;2023-03-19T15:16:06;15.10;99.90
37702;DHT22;23548;51.196;6.838;2023-03-19T15:18:36;15.20;99.90
37702;DHT22;23548;51.196;6.838;2023-03-19T15:21:03;15.00;99.90
37702;DHT22;23548;51.196;6.838;2023-03-19T15:23:29;14.90;99.90
37702;DHT22;23548;51.196;6.838;2023-03-19T15:25:58;15.00;99.90
37702;DHT22;23548;51.196;6.838;2023-03-19T15:28:43;14.90;99.90
37702;DHT22;23548;51.196;6.838;2023-03-19T15:31:10;15.10;99.90
37702;DHT22;23548;51.196;6.838;2023-03-19T15:33:38;15.30;99.90
37702;DHT22;23548;51.196;6.838;2023-03-19T15:36:27;15.30;99.90
37702;DHT22;23548;51.196;6.838;2023-03-19T15:39:10;15.50;99.90
37702;DHT22;23548;51.196;6.838;2023-03-19T15:41:39;15.50;99.90
37702;DHT22;23548;51.196;6.838;2023-03-19T15:44:10;15.70;99.90
37702;DHT22;23548;51.196;6.838;2023-03-19T15:46:41;15.70;99.90
37702;DHT22;23548;51.196;6.838;2023-03-19T15:49:12;15.80;99.90
37702;DHT22;23548;51.196;6.838;2023-03-19T15:51:40;15.70;99.90
37702;DHT22;23548;51.196;6.838;2023-03-19T15:54:09;16.00;99.90
37702;DHT22;23548;51.196;6.838;2023-03-19T15:56:35;16.40;99.90
37702;DHT22;23548;51.196;6.838;2023-03-19T15:59:02;16.30;99.90
37702;DHT22;23548;51.196;6.838;2023-03-19T16:01:30;16.10;99.90
37702;DHT22;23548;51.196;6.838;2023-03-19T16:04:05;15.90;99.90
37702;DHT22;23548;51.196;6.838;2023-03-19T16:06:37;15.70;99.90
37702;DHT22;23548;51.196;6.838;2023-03-19T16:11:42;14.60;99.90
37702;DHT22;23548;51.196;6.838;2023-03-19T16:16:39;14.40;99.90
37702;DHT22;23548;51.196;6.838;2023-03-19T16:19:30;14.40;99.90
37702;DHT22;23548;51.196;6.838;2023-03-19T16:21:58;14.20;99.90
37702;DHT22;23548;51.196;6.838;2023-03-19T16:27:05;14.10;99.90
37702;DHT22;23548;51.196;6.838;2023-03-19T16:29:44;14.10;99.90
37702;DHT22;23548;51.196;6.838;2023-03-19T16:32:15;14.10;99.90
37702;DHT22;23548;51.196;6.838;2023-03-19T16:34:49;14.10;99.90
37702;DHT22;23548;51.196;6.838;2023-03-19T16:37:44;14.30;99.90
37702;DHT22;23548;51.196;6.838;2023-03-19T16:42:44;14.80;99.90
37702;DHT22;23548;51.196;6.838;2023-03-19T16:47:49;15.00;99.90
37702;DHT22;23548;51.196;6.838;2023-03-19T16:50:17;14.90;99.90
37702;DHT22;23548;51.196;6.838;2023-03-19T16:52:45;15.00;99.90
37702;DHT22;23548;51.196;6.838;2023-03-19T16:55:21;14.70;99.90
37702;DHT22;23548;51.196;6.838;2023-03-19T16:57:54;14.50;99.90
37702;DHT22;23548;51.196;6.838;2023-03-19T17:00:21;14.30;99.90
37702;DHT22;23548;51.196;6.838;2023-03-19T17:02:48;14.20;99.90
37702;DHT22;23548;51.196;6.838;2023-03-19T17:05:14;14.10;99.90
37702;DHT22;23548;51.196;6.838;2023-03-19T17:07:41;14.10;99.90
37702;DHT22;23548;51.196;6.838;2023-03-19T17:10:18;14.00;99.90
37702;DHT22;23548;51.196;6.838;2023-03-19T17:12:46;13.90;99.90
37702;DHT22;23548;51.196;6.838;2023-03-19T17:15:30;13.80;99.90
37702;DHT22;23548;51.196;6.838;2023-03-19T17:17:56;13.60;99.90
37702;DHT22;23548;51.196;6.838;2023-03-19T17:20:28;13.50;99.90
37702;DHT22;23548;51.196;6.838;2023-03-19T17:22:55;13.40;99.90
37702;DHT22;23548;51.196;6.838;2023-03-19T17:25:21;13.30;99.90
37702;DHT22;23548;51.196;6.838;2023-03-19T17:27:47;13.20;99.90
37702;DHT22;23548;51.196;6.838;2023-03-19T17:30:13;13.10;99.90
37702;DHT22;23548;51.196;6.838;2023-03-19T17:32:42;13.10;99.90
37702;DHT22;23548;51.196;6.838;2023-03-19T17:35:15;13.00;99.90
37702;DHT22;23548;51.196;6.838;2023-03-19T17:37:42;12.90;99.90
37702;DHT22;23548;51.196;6.838;2023-03-19T17:40:23;12.90;99.90
37702;DHT22;23548;51.196;6.838;2023-03-19T17:42:50;12.90;99.90
37702;DHT22;23548;51.196;6.838;2023-03-19T17:45:17;12.80;99.90
37702;DHT22;23548;51.196;6.838;2023-03-19T17:47:51;12.80;99.90
37702;DHT22;23548;51.196;6.838;2023-03-19T17:50:23;12.70;99.90
37702;DHT22;23548;51.196;6.838;2023-03-19T17:52:50;12.60;99.90
37702;DHT22;23548;51.196;6.838;2023-03-19T17:55:27;12.60;99.90
37702;DHT22;23548;51.196;6.838;2023-03-19T17:57:54;12.60;99.90
37702;DHT22;23548;51.196;6.838;2023-03-19T18:00:22;12.50;99.90